createdAt,value
2022-09-15T00:00:45.826Z,79.32
2022-09-15T00:06:09.546Z,79.37
2022-09-15T00:11:22.910Z,79.49
2022-09-15T00:16:27.377Z,79.52
2022-09-15T00:21:32.148Z,79.54
2022-09-15T00:26:35.393Z,79.40
2022-09-15T00:31:39.019Z,79.40
2022-09-15T00:36:42.152Z,79.42
2022-09-15T00:41:44.792Z,79.34
2022-09-15T00:47:09.682Z,79.15
2022-09-15T00:52:29.157Z,79.05
2022-09-15T00:57:41.176Z,79.20
2022-09-15T01:02:46.614Z,79.09
2022-09-15T01:07:59.569Z,78.97
2022-09-15T01:13:05.501Z,79.02
2022-09-15T01:18:18.517Z,79.54
2022-09-15T01:23:47.739Z,79.50
2022-09-15T01:29:02.418Z,79.67
2022-09-15T01:34:16.482Z,79.80
2022-09-15T01:39:25.119Z,79.69
2022-09-15T01:44:49.862Z,79.86
2022-09-15T01:50:17.049Z,80.12
2022-09-15T01:55:32.250Z,80.09
2022-09-15T02:00:39.287Z,80.07
2022-09-15T02:05:52.355Z,80.41
2022-09-15T02:11:01.147Z,80.31
2022-09-15T02:16:04.502Z,80.58
2022-09-15T02:21:18.010Z,80.75
2022-09-15T02:26:25.077Z,80.67
2022-09-15T02:31:27.392Z,80.79
2022-09-15T02:36:30.559Z,80.62
2022-09-15T02:41:35.298Z,80.63
2022-09-15T02:46:37.408Z,80.79
2022-09-15T02:51:39.376Z,80.80
2022-09-15T02:56:41.351Z,81.05
2022-09-15T03:01:44.853Z,81.34
2022-09-15T03:06:47.725Z,81.10
2022-09-15T03:11:50.673Z,81.09
2022-09-15T03:16:54.142Z,80.72
2022-09-15T03:21:57.063Z,80.72
2022-09-15T03:27:00.434Z,80.63
2022-09-15T03:32:03.736Z,80.44
2022-09-15T03:37:06.413Z,80.81
2022-09-15T03:42:08.742Z,80.68
2022-09-15T03:47:11.671Z,80.68
2022-09-15T03:52:15.017Z,80.78
2022-09-15T03:57:17.777Z,80.37
2022-09-15T04:02:21.458Z,80.84
2022-09-15T04:07:23.390Z,80.80
2022-09-15T04:12:25.337Z,80.50
2022-09-15T04:17:28.086Z,81.02
2022-09-15T04:22:32.809Z,81.14
2022-09-15T04:27:38.442Z,81.21
2022-09-15T04:32:40.890Z,81.51
2022-09-15T04:37:43.056Z,81.36
2022-09-15T04:42:46.876Z,81.34
2022-09-15T04:47:52.012Z,81.26
2022-09-15T04:52:54.758Z,81.33
2022-09-15T04:57:58.252Z,81.07
2022-09-15T05:03:00.247Z,81.40
2022-09-15T05:08:03.415Z,81.68
2022-09-15T05:13:06.088Z,81.83
2022-09-15T05:18:08.583Z,81.82
2022-09-15T05:23:11.407Z,81.56
2022-09-15T05:28:14.352Z,81.61
2022-09-15T05:33:17.680Z,81.51
2022-09-15T05:38:21.515Z,81.51
2022-09-15T05:43:23.620Z,81.37
2022-09-15T05:48:27.123Z,81.22
2022-09-15T05:53:31.017Z,81.36
2022-09-15T05:58:34.662Z,81.42
2022-09-15T06:03:37.149Z,81.10
2022-09-15T06:08:44.482Z,81.05
2022-09-15T06:13:48.894Z,81.50
2022-09-15T06:18:56.852Z,81.54
2022-09-15T06:24:03.064Z,81.58
2022-09-15T06:29:06.164Z,81.46
2022-09-15T06:34:10.907Z,81.24
2022-09-15T06:39:13.534Z,80.98
2022-09-15T06:44:16.535Z,80.76
2022-09-15T06:49:19.338Z,80.71
2022-09-15T06:54:21.714Z,80.93
2022-09-15T06:59:24.553Z,80.85
2022-09-15T07:04:37.103Z,80.56
2022-09-15T07:09:41.295Z,80.46
2022-09-15T07:14:44.571Z,79.87
2022-09-15T07:19:47.958Z,79.13
2022-09-15T07:24:50.633Z,77.46
2022-09-15T07:29:53.292Z,75.07
2022-09-15T07:34:58.362Z,73.32
2022-09-15T07:40:05.718Z,71.16
2022-09-15T07:45:09.104Z,70.68
2022-09-15T07:50:14.518Z,70.70
2022-09-15T07:55:18.525Z,70.17
2022-09-15T08:00:20.777Z,69.92
2022-09-15T08:05:28.823Z,69.44
2022-09-15T08:10:33.439Z,68.63
2022-09-15T08:15:37.723Z,68.55
2022-09-15T08:20:43.617Z,67.61
2022-09-15T08:25:46.374Z,67.24
2022-09-15T08:30:49.975Z,67.03
2022-09-15T08:35:54.217Z,66.93
2022-09-15T08:41:05.947Z,66.58
2022-09-15T08:46:15.391Z,65.20
2022-09-15T08:51:41.446Z,64.69
2022-09-15T08:56:44.520Z,64.38
2022-09-15T09:02:15.112Z,63.50
2022-09-15T09:07:37.379Z,63.05
2022-09-15T09:12:52.315Z,62.44
2022-09-15T09:18:27.893Z,61.45
2022-09-15T09:23:32.831Z,60.96
2022-09-15T09:28:59.232Z,61.33
2022-09-15T09:34:10.830Z,61.49
2022-09-15T09:39:17.033Z,61.09
2022-09-15T09:44:20.154Z,60.47
2022-09-15T09:49:35.138Z,59.96
2022-09-15T09:54:37.875Z,60.33
2022-09-15T09:59:45.016Z,60.46
2022-09-15T10:05:19.460Z,59.67
2022-09-15T10:10:28.910Z,58.87
2022-09-15T10:15:35.058Z,59.47
2022-09-15T10:20:50.275Z,59.74
2022-09-15T10:26:00.598Z,58.95
2022-09-15T10:31:16.768Z,57.57
2022-09-15T10:36:33.805Z,57.22
2022-09-15T10:41:45.018Z,57.42
2022-09-15T10:47:05.449Z,57.08
2022-09-15T10:52:31.352Z,56.99
2022-09-15T10:57:57.907Z,57.15
2022-09-15T11:03:41.544Z,57.36
2022-09-15T11:09:05.705Z,57.26
2022-09-15T11:14:30.714Z,57.58
2022-09-15T11:19:46.178Z,57.46
2022-09-15T11:25:01.567Z,57.58
2022-09-15T11:30:19.325Z,57.70
2022-09-15T11:35:40.487Z,58.20
2022-09-15T11:40:55.285Z,58.92
2022-09-15T11:46:02.311Z,59.44
2022-09-15T11:51:06.441Z,59.57
2022-09-15T11:56:34.447Z,59.72
2022-09-15T12:01:59.418Z,59.82
2022-09-15T12:07:14.802Z,60.17
2022-09-15T12:12:22.187Z,60.39
2022-09-15T12:17:47.353Z,60.73
2022-09-15T12:23:20.594Z,61.28
2022-09-15T12:28:24.108Z,61.43
2022-09-15T12:33:53.935Z,61.96
2022-09-15T12:38:56.747Z,62.10
2022-09-15T12:44:05.353Z,62.54
2022-09-15T12:49:20.668Z,62.67
2022-09-15T12:54:29.426Z,62.84
2022-09-15T12:59:32.120Z,62.46
2022-09-15T13:04:52.549Z,62.25
2022-09-15T13:10:14.784Z,61.88
2022-09-15T13:15:18.747Z,61.76
2022-09-15T13:20:30.193Z,61.58
2022-09-15T13:25:33.228Z,61.36
2022-09-15T13:30:44.765Z,61.30
2022-09-15T13:36:05.799Z,61.45
2022-09-15T13:41:32.099Z,61.68
2022-09-15T13:46:38.315Z,61.81
2022-09-15T13:51:45.187Z,61.74
2022-09-15T13:56:53.884Z,61.32
2022-09-15T14:01:59.156Z,61.56
2022-09-15T14:07:02.690Z,61.62
2022-09-15T14:12:11.948Z,61.18
2022-09-15T14:17:29.856Z,61.29
2022-09-15T14:22:34.765Z,61.21
2022-09-15T14:27:43.910Z,61.53
2022-09-15T14:32:48.963Z,61.47
2022-09-15T14:37:58.173Z,61.21
2022-09-15T14:43:01.356Z,61.27
2022-09-15T14:48:09.402Z,61.20
2022-09-15T14:53:22.521Z,61.18
2022-09-15T14:58:34.202Z,61.27
2022-09-15T15:03:49.968Z,61.18
2022-09-15T15:09:03.354Z,61.23
2022-09-15T15:14:07.513Z,61.35
2022-09-15T15:19:34.467Z,61.33
2022-09-15T15:24:43.465Z,61.38
2022-09-15T15:29:46.837Z,61.92
2022-09-15T15:34:52.431Z,62.23
2022-09-15T15:39:57.617Z,62.16
2022-09-15T15:45:12.619Z,62.40
2022-09-15T15:50:24.158Z,62.54
2022-09-15T15:55:39.182Z,62.71
2022-09-15T16:00:56.314Z,62.93
2022-09-15T16:06:03.256Z,63.47
2022-09-15T16:11:09.508Z,63.82
2022-09-15T16:16:19.474Z,64.13
2022-09-15T16:21:39.245Z,64.47
2022-09-15T16:26:53.142Z,64.71
2022-09-15T16:32:00.571Z,64.95
2022-09-15T16:37:03.779Z,65.19
2022-09-15T16:42:09.201Z,65.38
2022-09-15T16:47:15.818Z,65.85
2022-09-15T16:52:19.992Z,65.89
2022-09-15T16:57:22.772Z,66.12
2022-09-15T17:02:29.855Z,66.35
2022-09-15T17:07:32.751Z,66.65
2022-09-15T17:12:37.747Z,66.92
2022-09-15T17:17:41.229Z,67.24
2022-09-15T17:22:51.616Z,67.39
2022-09-15T17:27:58.113Z,67.52
2022-09-15T17:33:04.142Z,67.74
2022-09-15T17:38:08.276Z,67.77
2022-09-15T17:43:17.733Z,67.88
2022-09-15T17:48:21.621Z,68.08
2022-09-15T17:53:28.266Z,68.26
2022-09-15T17:58:31.840Z,68.42
2022-09-15T18:03:36.804Z,68.54
2022-09-15T18:08:43.635Z,68.82
2022-09-15T18:13:49.025Z,68.92
2022-09-15T18:18:52.697Z,69.24
2022-09-15T18:23:56.828Z,69.31
2022-09-15T18:28:59.721Z,69.53
2022-09-15T18:34:02.414Z,69.72
2022-09-15T18:39:05.676Z,69.94
2022-09-15T18:44:09.117Z,70.06
2022-09-15T18:49:11.587Z,70.17
2022-09-15T18:54:16.906Z,70.41
2022-09-15T18:59:19.814Z,70.39
2022-09-15T19:04:26.321Z,70.50
2022-09-15T19:09:31.351Z,70.65
2022-09-15T19:14:34.895Z,70.76
2022-09-15T19:19:37.176Z,70.60
2022-09-15T19:24:42.609Z,70.80
2022-09-15T19:29:45.967Z,70.87
2022-09-15T19:34:48.973Z,70.90
2022-09-15T19:39:56.034Z,70.90
2022-09-15T19:44:59.914Z,70.81
2022-09-15T19:50:05.580Z,70.81
2022-09-15T19:55:12.411Z,70.72
2022-09-15T20:00:14.699Z,70.75
2022-09-15T20:05:19.335Z,70.66
2022-09-15T20:10:23.978Z,70.77
2022-09-15T20:15:28.604Z,70.93
2022-09-15T20:20:32.679Z,70.91
2022-09-15T20:25:36.226Z,70.94
2022-09-15T20:30:39.368Z,71.22
2022-09-15T20:35:43.793Z,71.47
2022-09-15T20:40:48.824Z,71.61
2022-09-15T20:46:01.643Z,71.71
2022-09-15T20:51:12.500Z,71.79
2022-09-15T20:56:16.724Z,71.78
2022-09-15T21:01:24.879Z,71.78
2022-09-15T21:06:28.831Z,71.90
2022-09-15T21:11:31.705Z,71.98
2022-09-15T21:16:34.715Z,72.19
2022-09-15T21:21:37.881Z,72.37
2022-09-15T21:27:00.599Z,72.47
2022-09-15T21:32:03.956Z,72.33
2022-09-15T21:37:06.828Z,72.63
2022-09-15T21:42:12.921Z,72.51
2022-09-15T21:47:16.232Z,72.55
2022-09-15T21:52:18.762Z,72.66
2022-09-15T21:57:21.126Z,72.63
2022-09-15T22:02:24.912Z,72.89
2022-09-15T22:07:27.837Z,73.15
2022-09-15T22:12:30.393Z,73.36
2022-09-15T22:17:32.706Z,73.37
2022-09-15T22:22:35.724Z,73.63
2022-09-15T22:27:37.931Z,73.57
2022-09-15T22:32:40.792Z,73.74
2022-09-15T22:37:43.305Z,73.90
2022-09-15T22:42:46.467Z,74.22
2022-09-15T22:47:48.507Z,74.74
2022-09-15T22:52:52.279Z,74.80
2022-09-15T22:57:54.427Z,74.86
2022-09-15T23:02:57.539Z,74.66
2022-09-15T23:08:00.121Z,74.80
2022-09-15T23:13:01.784Z,75.16
2022-09-15T23:18:04.138Z,75.41
2022-09-15T23:23:06.681Z,75.58
2022-09-15T23:28:10.255Z,75.80
2022-09-15T23:33:13.225Z,75.72
2022-09-15T23:38:16.142Z,76.16
2022-09-15T23:43:19.284Z,76.11
2022-09-15T23:48:22.680Z,76.14
2022-09-15T23:53:28.479Z,76.37
2022-09-15T23:58:30.398Z,76.40
